Time;durP1;ratioP1;P1;durP2;ratioP2;P2;SDS_P1;SDS_P2;PMS_P1;PMS_P2;Temp;Humidity;BMP_temperature;BMP_pressure;BME280_temperature;BME280_humidity;BME280_pressure;Samples;Min_cycle;Max_cycle;Signal;HPM_P1;HPM_P2
2023/03/27 00:00:31;;;;;;;0.22;0.22;;;;;;;;;;1710007;28;20261;-63
2023/03/27 00:01:23;;;;;;;0.10;0.10;;;;;;;;;;1711452;28;20293;-63
2023/03/27 00:02:14;;;;;;;0.10;0.10;;;;;;;;;;1711900;28;20205;-63
2023/03/27 00:03:07;;;;;;;0.30;0.30;;;;;;;;;;1711761;28;20199;-62
2023/03/27 00:03:59;;;;;;;0.10;0.10;;;;;;;;;;1712349;28;20205;-63
2023/03/27 00:04:53;;;;;;;0.10;0.10;;;;;;;;;;1711799;28;20249;-63
2023/03/27 00:05:44;;;;;;;0.10;0.10;;;;;;;;;;1709692;28;20234;-63
2023/03/27 00:06:36;;;;;;;0.15;0.15;;;;;;;;;;1710262;28;20218;-62
2023/03/27 00:07:27;;;;;;;0.20;0.20;;;;;;;;;;1710939;28;20269;-63
2023/03/27 00:08:19;;;;;;;0.20;0.20;;;;;;;;;;1710583;28;20272;-63
2023/03/27 00:09:11;;;;;;;0.20;0.20;;;;;;;;;;1712013;28;20710;-62
2023/03/27 00:10:02;;;;;;;0.20;0.20;;;;;;;;;;1711904;28;20283;-62
2023/03/27 00:10:54;;;;;;;0.22;0.22;;;;;;;;;;1710499;28;20719;-64
2023/03/27 00:11:46;;;;;;;0.00;0.00;;;;;;;;;;1711521;28;20201;-64
2023/03/27 00:12:38;;;;;;;0.10;0.10;;;;;;;;;;1711133;28;20309;-62
2023/03/27 00:13:30;;;;;;;0.20;0.20;;;;;;;;;;1710454;28;20202;-63
2023/03/27 00:14:22;;;;;;;0.00;0.00;;;;;;;;;;1712086;28;20682;-63
2023/03/27 00:15:16;;;;;;;0.20;0.20;;;;;;;;;;1710113;28;20210;-62
2023/03/27 00:16:07;;;;;;;0.17;0.17;;;;;;;;;;1711120;28;20225;-62
2023/03/27 00:16:59;;;;;;;0.68;0.68;;;;;;;;;;1711847;28;20202;-62
2023/03/27 00:17:51;;;;;;;0.30;0.30;;;;;;;;;;1709783;28;20214;-62
2023/03/27 00:18:43;;;;;;;0.10;0.10;;;;;;;;;;1711597;28;20205;-62
2023/03/27 00:19:36;;;;;;;0.10;0.10;;;;;;;;;;1711642;28;20715;-62
2023/03/27 00:20:28;;;;;;;0.10;0.10;;;;;;;;;;1709810;28;20206;-63
2023/03/27 00:21:21;;;;;;;0.20;0.20;;;;;;;;;;1711517;28;20224;-63
2023/03/27 00:22:13;;;;;;;0.35;0.35;;;;;;;;;;1707919;28;20202;-62
2023/03/27 00:23:05;;;;;;;0.00;0.00;;;;;;;;;;1708360;28;20206;-63
2023/03/27 00:23:59;;;;;;;0.28;0.28;;;;;;;;;;1712318;28;20209;-62
2023/03/27 00:24:50;;;;;;;0.10;0.10;;;;;;;;;;1710492;28;20234;-62
2023/03/27 00:25:42;;;;;;;0.10;0.10;;;;;;;;;;1706532;28;20739;-62
2023/03/27 00:26:33;;;;;;;0.20;0.20;;;;;;;;;;1704483;28;20611;-62
2023/03/27 00:27:25;;;;;;;0.10;0.10;;;;;;;;;;1703987;28;20615;-63
2023/03/27 00:28:16;;;;;;;0.10;0.10;;;;;;;;;;1703909;28;20486;-63
2023/03/27 00:29:09;;;;;;;0.40;0.40;;;;;;;;;;1705022;28;20618;-63
2023/03/27 00:30:00;;;;;;;0.13;0.13;;;;;;;;;;1703641;28;20203;-63
2023/03/27 00:30:52;;;;;;;0.30;0.30;;;;;;;;;;1702973;28;20269;-63
2023/03/27 00:31:43;;;;;;;0.10;0.10;;;;;;;;;;1704749;28;20596;-63
2023/03/27 00:32:35;;;;;;;0.20;0.20;;;;;;;;;;1704018;28;20211;-63
2023/03/27 00:33:26;;;;;;;0.13;0.13;;;;;;;;;;1703677;28;20211;-63
2023/03/27 00:34:18;;;;;;;0.20;0.20;;;;;;;;;;1705144;28;20325;-63
2023/03/27 00:35:11;;;;;;;0.20;0.20;;;;;;;;;;1703589;28;20200;-63
2023/03/27 00:36:03;;;;;;;0.10;0.10;;;;;;;;;;1704551;28;20389;-63
2023/03/27 00:36:54;;;;;;;0.10;0.10;;;;;;;;;;1704331;28;20272;-63
2023/03/27 00:37:46;;;;;;;0.30;0.30;;;;;;;;;;1703693;29;20234;-63
2023/03/27 00:38:38;;;;;;;0.10;0.10;;;;;;;;;;1704853;28;20210;-63
2023/03/27 00:39:30;;;;;;;0.10;0.10;;;;;;;;;;1703839;29;20215;-62
2023/03/27 00:40:21;;;;;;;0.05;0.05;;;;;;;;;;1706363;28;20210;-62
2023/03/27 00:41:13;;;;;;;0.08;0.08;;;;;;;;;;1704793;29;20237;-63
2023/03/27 00:42:04;;;;;;;0.10;0.10;;;;;;;;;;1705781;28;20269;-62
2023/03/27 00:42:56;;;;;;;0.10;0.10;;;;;;;;;;1703316;29;20318;-62
2023/03/27 00:43:48;;;;;;;0.10;0.10;;;;;;;;;;1705232;28;20215;-62
2023/03/27 00:44:41;;;;;;;0.13;0.13;;;;;;;;;;1704712;29;20287;-62
2023/03/27 00:45:33;;;;;;;0.00;0.00;;;;;;;;;;1703051;28;20650;-62
2023/03/27 00:46:26;;;;;;;0.47;0.47;;;;;;;;;;1705336;28;20711;-61
2023/03/27 00:47:21;;;;;;;0.05;0.05;;;;;;;;;;1704377;28;20631;-62
2023/03/27 00:48:12;;;;;;;0.10;0.10;;;;;;;;;;1704813;28;20208;-63
2023/03/27 00:49:06;;;;;;;0.00;0.00;;;;;;;;;;1705710;28;20198;-63
2023/03/27 00:49:57;;;;;;;0.20;0.20;;;;;;;;;;1702179;28;20635;-62
2023/03/27 00:50:51;;;;;;;0.40;0.40;;;;;;;;;;1703137;28;20366;-62
2023/03/27 00:51:45;;;;;;;0.20;0.20;;;;;;;;;;1704535;28;20215;-62
2023/03/27 00:52:38;;;;;;;0.17;0.17;;;;;;;;;;1704516;28;20270;-62
2023/03/27 00:53:30;;;;;;;0.00;0.00;;;;;;;;;;1704618;28;20211;-62
2023/03/27 00:54:25;;;;;;;0.32;0.32;;;;;;;;;;1705179;29;20636;-62
2023/03/27 00:55:18;;;;;;;0.10;0.10;;;;;;;;;;1702707;28;20206;-62
2023/03/27 00:56:11;;;;;;;0.20;0.20;;;;;;;;;;1703338;29;20215;-61
2023/03/27 00:57:06;;;;;;;0.10;0.10;;;;;;;;;;1704580;28;20207;-61
2023/03/27 00:58:00;;;;;;;0.20;0.20;;;;;;;;;;1702221;29;20210;-62
2023/03/27 00:58:53;;;;;;;0.30;0.30;;;;;;;;;;1703900;28;20382;-62
2023/03/27 00:59:46;;;;;;;0.05;0.05;;;;;;;;;;1702907;28;20603;-62
2023/03/27 01:00:37;;;;;;;0.20;0.20;;;;;;;;;;1703245;28;20238;-62
2023/03/27 01:01:30;;;;;;;0.10;0.10;;;;;;;;;;1704643;28;20210;-62
2023/03/27 01:02:21;;;;;;;0.10;0.10;;;;;;;;;;1703494;28;20218;-63
2023/03/27 01:03:13;;;;;;;0.10;0.10;;;;;;;;;;1704675;28;20261;-62
2023/03/27 01:04:06;;;;;;;0.20;0.20;;;;;;;;;;1705299;28;20214;-63
2023/03/27 01:04:58;;;;;;;0.40;0.40;;;;;;;;;;1702207;28;20210;-63
2023/03/27 01:05:50;;;;;;;0.08;0.08;;;;;;;;;;1702691;28;20786;-63
2023/03/27 01:06:43;;;;;;;0.03;0.03;;;;;;;;;;1704364;28;20211;-62
2023/03/27 01:07:34;;;;;;;0.00;0.00;;;;;;;;;;1703557;28;20378;-63
2023/03/27 01:08:26;;;;;;;0.10;0.10;;;;;;;;;;1702852;28;20206;-62
2023/03/27 01:09:18;;;;;;;0.00;0.00;;;;;;;;;;1705042;28;20751;-63
2023/03/27 01:10:10;;;;;;;0.05;0.05;;;;;;;;;;1703382;28;20226;-63
2023/03/27 01:11:09;;;;;;;0.10;0.10;;;;;;;;;;1704514;28;20242;-62
2023/03/27 01:12:07;;;;;;;0.10;0.10;;;;;;;;;;1703087;28;20195;-62
2023/03/27 01:12:59;;;;;;;0.10;0.10;;;;;;;;;;1704051;28;20203;-62
2023/03/27 01:13:57;;;;;;;0.10;0.10;;;;;;;;;;1705799;28;20217;-62
2023/03/27 01:14:56;;;;;;;0.10;0.10;;;;;;;;;;1704114;28;20243;-62
2023/03/27 01:15:51;;;;;;;0.10;0.10;;;;;;;;;;1703092;28;20835;-63
2023/03/27 01:16:47;;;;;;;0.10;0.10;;;;;;;;;;1703493;28;20261;-62
2023/03/27 01:17:50;;;;;;;0.10;0.10;;;;;;;;;;1705306;28;20226;-62
2023/03/27 01:18:49;;;;;;;0.10;0.10;;;;;;;;;;1703041;28;20216;-62
2023/03/27 01:19:55;;;;;;;0.10;0.10;;;;;;;;;;1702408;29;20246;-62
2023/03/27 01:20:59;;;;;;;0.20;0.20;;;;;;;;;;1698520;28;20610;-62
2023/03/27 01:22:10;;;;;;;0.10;0.10;;;;;;;;;;1704407;28;20302;-62
2023/03/27 01:23:16;;;;;;;0.20;0.20;;;;;;;;;;1700012;28;20290;-62
2023/03/27 01:24:23;;;;;;;0.20;0.20;;;;;;;;;;1701293;28;20234;-62
2023/03/27 01:25:29;;;;;;;0.10;0.10;;;;;;;;;;1703167;28;20289;-63
2023/03/27 01:26:40;;;;;;;0.00;0.00;;;;;;;;;;1694677;29;20452;-62
2023/03/27 01:27:41;;;;;;;0.30;0.30;;;;;;;;;;1698319;29;20496;-63
2023/03/27 01:28:42;;;;;;;0.15;0.15;;;;;;;;;;1697345;29;20266;-63
2023/03/27 01:29:39;;;;;;;0.15;0.15;;;;;;;;;;1695994;29;20215;-62
2023/03/27 01:30:33;;;;;;;0.20;0.20;;;;;;;;;;1699927;29;20326;-62
2023/03/27 01:31:40;;;;;;;0.10;0.10;;;;;;;;;;1697067;29;20528;-62
2023/03/27 01:32:48;;;;;;;0.30;0.30;;;;;;;;;;1701969;29;20211;-62
2023/03/27 01:33:52;;;;;;;0.00;0.00;;;;;;;;;;1700349;29;20226;-62
2023/03/27 01:34:53;;;;;;;0.10;0.10;;;;;;;;;;1732882;23;20241;-60
2023/03/27 01:35:59;;;;;;;0.10;0.10;;;;;;;;;;1723881;28;20590;-60
2023/03/27 01:36:59;;;;;;;0.20;0.20;;;;;;;;;;1726253;28;20654;-59
2023/03/27 01:37:56;;;;;;;0.40;0.40;;;;;;;;;;1728221;28;21386;-60
2023/03/27 01:39:06;;;;;;;0.22;0.22;;;;;;;;;;1728121;28;20212;-59
2023/03/27 01:40:04;;;;;;;0.20;0.20;;;;;;;;;;1727243;28;20696;-60
2023/03/27 01:40:57;;;;;;;0.43;0.43;;;;;;;;;;1723999;28;20720;-59
2023/03/27 01:41:52;;;;;;;0.08;0.08;;;;;;;;;;1727026;28;20208;-59
2023/03/27 01:42:47;;;;;;;0.20;0.20;;;;;;;;;;1728669;28;20665;-60
2023/03/27 01:43:41;;;;;;;0.00;0.00;;;;;;;;;;1727859;28;20204;-60
2023/03/27 01:44:34;;;;;;;0.10;0.10;;;;;;;;;;1724788;28;20311;-58
2023/03/27 01:45:31;;;;;;;0.10;0.10;;;;;;;;;;1721306;28;20220;-60
2023/03/27 01:46:24;;;;;;;0.10;0.10;;;;;;;;;;1723483;28;20605;-60
2023/03/27 01:47:22;;;;;;;0.05;0.05;;;;;;;;;;1723636;28;20200;-60
2023/03/27 01:48:15;;;;;;;0.10;0.10;;;;;;;;;;1723974;28;20201;-60
2023/03/27 01:49:11;;;;;;;0.20;0.20;;;;;;;;;;1725155;28;20204;-60
2023/03/27 01:50:08;;;;;;;0.20;0.20;;;;;;;;;;1722521;28;20200;-60
2023/03/27 01:51:02;;;;;;;0.10;0.10;;;;;;;;;;1730079;28;20247;-60
2023/03/27 01:51:55;;;;;;;0.10;0.10;;;;;;;;;;1732826;28;20286;-59
2023/03/27 01:52:50;;;;;;;0.10;0.10;;;;;;;;;;1730900;28;20207;-59
2023/03/27 01:53:44;;;;;;;0.10;0.10;;;;;;;;;;1731432;28;20265;-60
2023/03/27 01:54:37;;;;;;;0.10;0.10;;;;;;;;;;1730731;28;20270;-60
2023/03/27 01:55:33;;;;;;;0.30;0.30;;;;;;;;;;1729607;28;20212;-59
2023/03/27 01:56:30;;;;;;;0.17;0.17;;;;;;;;;;1730737;28;20224;-60
2023/03/27 01:57:23;;;;;;;0.10;0.10;;;;;;;;;;1729397;28;20619;-59
2023/03/27 01:58:17;;;;;;;0.10;0.10;;;;;;;;;;1731261;28;20436;-59
2023/03/27 01:59:10;;;;;;;0.30;0.30;;;;;;;;;;1731757;28;20204;-58
2023/03/27 02:00:11;;;;;;;0.30;0.30;;;;;;;;;;1731250;28;20231;-59
2023/03/27 02:01:03;;;;;;;0.10;0.10;;;;;;;;;;1716964;28;20225;-59
2023/03/27 02:01:59;;;;;;;0.10;0.10;;;;;;;;;;1722147;28;20634;-59
2023/03/27 02:02:53;;;;;;;0.10;0.10;;;;;;;;;;1723566;28;20224;-59
2023/03/27 02:03:47;;;;;;;0.10;0.10;;;;;;;;;;1724466;28;20254;-59
2023/03/27 02:04:40;;;;;;;0.20;0.20;;;;;;;;;;1722971;28;20212;-60
2023/03/27 02:05:33;;;;;;;0.10;0.10;;;;;;;;;;1722778;28;20724;-60
2023/03/27 02:06:27;;;;;;;0.20;0.20;;;;;;;;;;1723355;28;20213;-60
2023/03/27 02:07:24;;;;;;;0.00;0.00;;;;;;;;;;1724748;28;20577;-59
2023/03/27 02:08:16;;;;;;;0.30;0.30;;;;;;;;;;1723746;28;20644;-59
2023/03/27 02:09:11;;;;;;;0.10;0.10;;;;;;;;;;1725608;28;20736;-56
2023/03/27 02:10:04;;;;;;;0.10;0.10;;;;;;;;;;1724236;28;20531;-59
2023/03/27 02:10:58;;;;;;;0.03;0.03;;;;;;;;;;1728764;28;20235;-60
2023/03/27 02:11:52;;;;;;;0.00;0.00;;;;;;;;;;1730513;28;20216;-58
2023/03/27 02:12:45;;;;;;;0.10;0.10;;;;;;;;;;1731403;28;20242;-59
2023/03/27 02:13:40;;;;;;;0.10;0.10;;;;;;;;;;1730543;28;20204;-59
2023/03/27 02:14:34;;;;;;;0.20;0.20;;;;;;;;;;1730559;28;20504;-59
2023/03/27 02:15:30;;;;;;;0.20;0.20;;;;;;;;;;1728503;28;20523;-59
2023/03/27 02:16:23;;;;;;;0.08;0.08;;;;;;;;;;1730430;28;20212;-59
2023/03/27 02:17:16;;;;;;;0.00;0.00;;;;;;;;;;1731557;28;20581;-58
2023/03/27 02:18:09;;;;;;;0.25;0.25;;;;;;;;;;1729670;28;20265;-59
2023/03/27 02:19:03;;;;;;;0.22;0.22;;;;;;;;;;1731236;28;20210;-59
2023/03/27 02:19:57;;;;;;;0.20;0.20;;;;;;;;;;1731287;28;20209;-59
2023/03/27 02:20:49;;;;;;;0.10;0.10;;;;;;;;;;1729228;28;20309;-59
2023/03/27 02:21:40;;;;;;;0.00;0.00;;;;;;;;;;1730557;28;20327;-60
2023/03/27 02:22:32;;;;;;;0.13;0.13;;;;;;;;;;1731539;28;20196;-59
2023/03/27 02:23:23;;;;;;;0.00;0.00;;;;;;;;;;1731349;28;20902;-60
2023/03/27 02:24:17;;;;;;;0.20;0.20;;;;;;;;;;1731640;28;20308;-59
2023/03/27 02:25:22;;;;;;;0.10;0.10;;;;;;;;;;1729716;28;20259;-59
2023/03/27 02:26:16;;;;;;;0.10;0.10;;;;;;;;;;1723332;28;20283;-59
2023/03/27 02:27:11;;;;;;;0.10;0.10;;;;;;;;;;1732126;28;20538;-59
2023/03/27 02:28:09;;;;;;;0.10;0.10;;;;;;;;;;1731063;28;20704;-59
2023/03/27 02:29:07;;;;;;;0.00;0.00;;;;;;;;;;1731650;28;20208;-59
2023/03/27 02:30:01;;;;;;;0.20;0.20;;;;;;;;;;1731149;28;20253;-59
2023/03/27 02:30:57;;;;;;;0.05;0.05;;;;;;;;;;1729452;28;20315;-59
2023/03/27 02:31:54;;;;;;;0.50;0.50;;;;;;;;;;1730418;28;20669;-59
2023/03/27 02:32:49;;;;;;;0.10;0.10;;;;;;;;;;1732744;28;20701;-59
2023/03/27 02:33:45;;;;;;;0.00;0.00;;;;;;;;;;1730987;28;20208;-58
2023/03/27 02:34:50;;;;;;;0.20;0.20;;;;;;;;;;1730560;28;20291;-59
2023/03/27 02:35:48;;;;;;;0.00;0.00;;;;;;;;;;1726972;28;20720;-59
2023/03/27 02:36:43;;;;;;;0.10;0.10;;;;;;;;;;1730423;28;20269;-59
2023/03/27 02:37:38;;;;;;;0.00;0.00;;;;;;;;;;1730716;28;20212;-60
2023/03/27 02:38:32;;;;;;;0.10;0.10;;;;;;;;;;1730475;28;20624;-60
2023/03/27 02:39:28;;;;;;;0.10;0.10;;;;;;;;;;1731244;28;20208;-59
2023/03/27 02:40:28;;;;;;;0.10;0.10;;;;;;;;;;1728785;28;20203;-59
2023/03/27 02:41:24;;;;;;;0.10;0.10;;;;;;;;;;1730643;28;20657;-59
2023/03/27 02:42:18;;;;;;;0.10;0.10;;;;;;;;;;1731773;28;20757;-59
2023/03/27 02:43:12;;;;;;;0.20;0.20;;;;;;;;;;1731046;28;20702;-59
2023/03/27 02:44:10;;;;;;;0.15;0.15;;;;;;;;;;1731764;28;20573;-59
2023/03/27 02:45:08;;;;;;;0.17;0.17;;;;;;;;;;1729186;28;20519;-59
2023/03/27 02:46:03;;;;;;;0.05;0.05;;;;;;;;;;1729606;28;20636;-59
2023/03/27 02:46:59;;;;;;;0.10;0.10;;;;;;;;;;1729827;28;20208;-59
2023/03/27 02:47:54;;;;;;;0.20;0.20;;;;;;;;;;1732471;28;20220;-59
2023/03/27 02:48:45;;;;;;;0.10;0.10;;;;;;;;;;1732692;28;20220;-58
2023/03/27 02:49:39;;;;;;;0.13;0.13;;;;;;;;;;1731372;28;20204;-59
2023/03/27 02:50:34;;;;;;;0.20;0.20;;;;;;;;;;1730638;28;20739;-59
2023/03/27 02:51:27;;;;;;;0.10;0.10;;;;;;;;;;1731080;28;20303;-59
2023/03/27 02:52:22;;;;;;;0.10;0.10;;;;;;;;;;1731895;28;20219;-58
2023/03/27 02:53:17;;;;;;;0.00;0.00;;;;;;;;;;1735432;28;20720;-59
2023/03/27 02:54:11;;;;;;;0.10;0.10;;;;;;;;;;1732939;28;20585;-58
2023/03/27 02:55:05;;;;;;;0.10;0.10;;;;;;;;;;1731812;28;20255;-59
2023/03/27 02:55:58;;;;;;;0.05;0.05;;;;;;;;;;1730558;28;20236;-59
2023/03/27 02:56:53;;;;;;;0.20;0.20;;;;;;;;;;1731232;28;20238;-58
2023/03/27 02:57:48;;;;;;;0.30;0.30;;;;;;;;;;1734126;28;20273;-59
2023/03/27 02:58:42;;;;;;;0.10;0.10;;;;;;;;;;1732256;28;20210;-59
2023/03/27 02:59:35;;;;;;;0.15;0.15;;;;;;;;;;1732415;28;20239;-58
2023/03/27 03:00:28;;;;;;;0.30;0.30;;;;;;;;;;1730375;28;20204;-59
2023/03/27 03:01:21;;;;;;;0.10;0.10;;;;;;;;;;1732004;28;20238;-59
2023/03/27 03:02:16;;;;;;;0.20;0.20;;;;;;;;;;1731039;28;20538;-57
2023/03/27 03:03:11;;;;;;;0.40;0.40;;;;;;;;;;1728170;28;20207;-59
2023/03/27 03:04:06;;;;;;;0.00;0.00;;;;;;;;;;1735824;28;20200;-59
2023/03/27 03:05:00;;;;;;;0.10;0.10;;;;;;;;;;1732789;28;20232;-59
2023/03/27 03:05:52;;;;;;;0.10;0.10;;;;;;;;;;1730449;28;20236;-59
2023/03/27 03:06:44;;;;;;;0.20;0.20;;;;;;;;;;1733208;28;20722;-59
2023/03/27 03:07:37;;;;;;;0.28;0.28;;;;;;;;;;1730938;28;20208;-59
2023/03/27 03:08:29;;;;;;;0.20;0.20;;;;;;;;;;1731797;28;20212;-59
2023/03/27 03:09:21;;;;;;;0.20;0.20;;;;;;;;;;1732808;28;20527;-59
2023/03/27 03:10:12;;;;;;;0.20;0.20;;;;;;;;;;1730758;28;20561;-58
2023/03/27 03:11:04;;;;;;;0.30;0.30;;;;;;;;;;1725149;28;20445;-59
2023/03/27 03:11:58;;;;;;;0.22;0.22;;;;;;;;;;1724353;28;20208;-59
2023/03/27 03:12:49;;;;;;;0.00;0.00;;;;;;;;;;1725915;28;20779;-59
2023/03/27 03:13:41;;;;;;;0.10;0.10;;;;;;;;;;1725212;28;20617;-59
2023/03/27 03:14:34;;;;;;;0.10;0.10;;;;;;;;;;1725467;28;20628;-59
2023/03/27 03:15:25;;;;;;;0.10;0.10;;;;;;;;;;1726065;28;20255;-58
2023/03/27 03:16:17;;;;;;;0.10;0.10;;;;;;;;;;1732080;28;20184;-59
2023/03/27 03:17:09;;;;;;;0.20;0.20;;;;;;;;;;1732929;28;20629;-59
2023/03/27 03:18:01;;;;;;;0.00;0.00;;;;;;;;;;1732526;28;20199;-58
2023/03/27 03:18:52;;;;;;;0.20;0.20;;;;;;;;;;1732527;28;20404;-59
2023/03/27 03:19:44;;;;;;;0.28;0.28;;;;;;;;;;1732093;28;20492;-59
2023/03/27 03:20:35;;;;;;;0.00;0.00;;;;;;;;;;1730765;28;20297;-57
2023/03/27 03:21:27;;;;;;;0.13;0.13;;;;;;;;;;1731240;28;20192;-59
2023/03/27 03:22:18;;;;;;;0.10;0.10;;;;;;;;;;1732737;28;20257;-59
2023/03/27 03:23:10;;;;;;;0.08;0.08;;;;;;;;;;1732007;28;20557;-59
2023/03/27 03:24:01;;;;;;;0.10;0.10;;;;;;;;;;1732603;28;20672;-59
2023/03/27 03:24:52;;;;;;;0.13;0.13;;;;;;;;;;1730301;28;20230;-59
2023/03/27 03:25:46;;;;;;;0.10;0.10;;;;;;;;;;1730464;28;20220;-58
2023/03/27 03:26:38;;;;;;;0.20;0.20;;;;;;;;;;1733090;28;20208;-58
2023/03/27 03:27:33;;;;;;;0.20;0.20;;;;;;;;;;1732421;28;20287;-58
2023/03/27 03:28:24;;;;;;;0.38;0.38;;;;;;;;;;1731603;28;20298;-58
2023/03/27 03:29:16;;;;;;;0.00;0.00;;;;;;;;;;1732184;28;20738;-58
2023/03/27 03:30:08;;;;;;;0.15;0.15;;;;;;;;;;1732359;28;20208;-58
2023/03/27 03:31:01;;;;;;;0.20;0.20;;;;;;;;;;1729708;28;20691;-59
2023/03/27 03:31:52;;;;;;;0.10;0.10;;;;;;;;;;1732020;28;20212;-58
2023/03/27 03:32:46;;;;;;;0.00;0.00;;;;;;;;;;1731629;28;20223;-59
2023/03/27 03:33:37;;;;;;;0.17;0.17;;;;;;;;;;1732005;28;20208;-58
2023/03/27 03:34:29;;;;;;;0.20;0.20;;;;;;;;;;1732472;28;20921;-59
2023/03/27 03:35:21;;;;;;;0.10;0.10;;;;;;;;;;1728127;28;20243;-59
2023/03/27 03:36:13;;;;;;;0.10;0.10;;;;;;;;;;1724048;28;20612;-57
2023/03/27 03:37:09;;;;;;;0.22;0.22;;;;;;;;;;1725742;28;20216;-58
2023/03/27 03:38:02;;;;;;;0.13;0.13;;;;;;;;;;1726124;28;20976;-58
2023/03/27 03:38:53;;;;;;;0.10;0.10;;;;;;;;;;1724221;28;20212;-59
2023/03/27 03:39:45;;;;;;;0.08;0.08;;;;;;;;;;1724693;28;20205;-58
2023/03/27 03:40:36;;;;;;;0.10;0.10;;;;;;;;;;1722094;28;20298;-59
2023/03/27 03:41:27;;;;;;;0.20;0.20;;;;;;;;;;1724519;28;20200;-58
2023/03/27 03:42:19;;;;;;;0.30;0.30;;;;;;;;;;1726435;28;20278;-59
2023/03/27 03:43:11;;;;;;;0.10;0.10;;;;;;;;;;1729621;28;20279;-59
2023/03/27 03:44:03;;;;;;;0.20;0.20;;;;;;;;;;1725526;28;20507;-59
2023/03/27 03:44:54;;;;;;;0.40;0.40;;;;;;;;;;1727207;28;20889;-59
2023/03/27 03:45:46;;;;;;;0.03;0.03;;;;;;;;;;1727468;28;20251;-59
2023/03/27 03:46:38;;;;;;;0.20;0.20;;;;;;;;;;1734088;28;20576;-59
2023/03/27 03:47:30;;;;;;;0.00;0.00;;;;;;;;;;1732538;28;20210;-59
2023/03/27 03:48:21;;;;;;;0.20;0.20;;;;;;;;;;1731968;28;20215;-59
2023/03/27 03:49:13;;;;;;;0.20;0.20;;;;;;;;;;1732526;28;20210;-60
2023/03/27 03:50:05;;;;;;;0.10;0.10;;;;;;;;;;1730342;28;20205;-59
2023/03/27 03:50:57;;;;;;;0.20;0.20;;;;;;;;;;1732304;28;20775;-60
2023/03/27 03:51:48;;;;;;;0.00;0.00;;;;;;;;;;1730659;28;20224;-59
2023/03/27 03:52:40;;;;;;;0.10;0.10;;;;;;;;;;1735497;28;20254;-59
2023/03/27 03:53:31;;;;;;;0.10;0.10;;;;;;;;;;1731262;28;20244;-60
2023/03/27 03:54:23;;;;;;;0.00;0.00;;;;;;;;;;1732730;28;20202;-59
2023/03/27 03:55:15;;;;;;;0.20;0.20;;;;;;;;;;1728906;28;20204;-59
2023/03/27 03:56:07;;;;;;;0.00;0.00;;;;;;;;;;1736771;28;20253;-60
2023/03/27 03:56:58;;;;;;;0.10;0.10;;;;;;;;;;1731925;28;20262;-60
2023/03/27 03:57:50;;;;;;;0.10;0.10;;;;;;;;;;1730941;28;20287;-59
2023/03/27 03:58:42;;;;;;;0.10;0.10;;;;;;;;;;1731508;28;20639;-60
2023/03/27 03:59:34;;;;;;;0.10;0.10;;;;;;;;;;1731706;28;20299;-58
2023/03/27 04:00:27;;;;;;;0.20;0.20;;;;;;;;;;1728972;28;20203;-59
2023/03/27 04:01:20;;;;;;;0.25;0.25;;;;;;;;;;1731439;28;20687;-60
2023/03/27 04:02:11;;;;;;;0.20;0.20;;;;;;;;;;1732327;28;20239;-62
2023/03/27 04:03:04;;;;;;;0.10;0.10;;;;;;;;;;1732013;28;20208;-58
2023/03/27 04:03:55;;;;;;;0.10;0.10;;;;;;;;;;1732250;28;20204;-59
2023/03/27 04:04:47;;;;;;;0.10;0.10;;;;;;;;;;1731758;28;20729;-60
2023/03/27 04:05:38;;;;;;;0.10;0.10;;;;;;;;;;1730008;28;20232;-59
2023/03/27 04:06:31;;;;;;;0.10;0.10;;;;;;;;;;1731703;28;20203;-59
2023/03/27 04:07:22;;;;;;;0.20;0.20;;;;;;;;;;1732306;28;20578;-59
2023/03/27 04:08:14;;;;;;;0.08;0.08;;;;;;;;;;1732206;28;20215;-60
2023/03/27 04:09:06;;;;;;;0.13;0.13;;;;;;;;;;1732754;28;20257;-60
2023/03/27 04:09:58;;;;;;;0.10;0.10;;;;;;;;;;1730603;28;20219;-60
2023/03/27 04:10:49;;;;;;;0.30;0.30;;;;;;;;;;1730539;28;20239;-60
2023/03/27 04:11:41;;;;;;;0.13;0.13;;;;;;;;;;1731699;28;20770;-59
2023/03/27 04:12:32;;;;;;;0.13;0.13;;;;;;;;;;1733318;28;20205;-59
2023/03/27 04:13:24;;;;;;;0.20;0.20;;;;;;;;;;1734119;28;20250;-61
2023/03/27 04:14:17;;;;;;;0.10;0.10;;;;;;;;;;1731890;28;20208;-58
2023/03/27 04:15:08;;;;;;;0.00;0.00;;;;;;;;;;1730953;28;20763;-60
2023/03/27 04:16:01;;;;;;;0.10;0.10;;;;;;;;;;1729545;28;20224;-59
2023/03/27 04:16:52;;;;;;;0.20;0.20;;;;;;;;;;1731402;28;20227;-61
2023/03/27 04:17:44;;;;;;;0.10;0.10;;;;;;;;;;1732718;28;20737;-59
2023/03/27 04:18:37;;;;;;;0.10;0.10;;;;;;;;;;1732272;28;20242;-60
2023/03/27 04:19:29;;;;;;;0.10;0.10;;;;;;;;;;1732262;28;20261;-61
2023/03/27 04:20:20;;;;;;;0.20;0.20;;;;;;;;;;1728612;28;20677;-59
2023/03/27 04:21:14;;;;;;;0.03;0.03;;;;;;;;;;1732188;28;20193;-58
2023/03/27 04:22:05;;;;;;;0.03;0.03;;;;;;;;;;1731617;28;20215;-59
2023/03/27 04:23:01;;;;;;;0.20;0.20;;;;;;;;;;1733498;28;20283;-60
2023/03/27 04:23:52;;;;;;;0.10;0.10;;;;;;;;;;1733249;28;20351;-59
2023/03/27 04:24:44;;;;;;;0.13;0.13;;;;;;;;;;1734543;28;20204;-59
2023/03/27 04:25:35;;;;;;;0.30;0.30;;;;;;;;;;1731930;28;20231;-59
2023/03/27 04:26:28;;;;;;;0.20;0.20;;;;;;;;;;1733433;28;20199;-59
2023/03/27 04:27:20;;;;;;;0.50;0.50;;;;;;;;;;1732239;28;20212;-59
2023/03/27 04:28:15;;;;;;;0.15;0.15;;;;;;;;;;1731543;28;20253;-59
2023/03/27 04:29:09;;;;;;;0.10;0.10;;;;;;;;;;1730551;28;20250;-59
2023/03/27 04:30:02;;;;;;;0.20;0.20;;;;;;;;;;1729977;28;20254;-62
2023/03/27 04:30:53;;;;;;;0.10;0.10;;;;;;;;;;1730016;28;20644;-60
2023/03/27 04:31:45;;;;;;;0.03;0.03;;;;;;;;;;1731638;28;20648;-59
2023/03/27 04:32:36;;;;;;;0.17;0.17;;;;;;;;;;1731876;28;20254;-59
2023/03/27 04:33:28;;;;;;;0.13;0.13;;;;;;;;;;1729844;28;20234;-60
2023/03/27 04:34:19;;;;;;;0.15;0.15;;;;;;;;;;1732122;28;20632;-59
2023/03/27 04:35:11;;;;;;;0.22;0.22;;;;;;;;;;1732698;28;20261;-59
2023/03/27 04:36:02;;;;;;;0.40;0.40;;;;;;;;;;1735061;28;20385;-60
2023/03/27 04:36:54;;;;;;;0.20;0.20;;;;;;;;;;1732024;28;20204;-59
2023/03/27 04:37:46;;;;;;;0.30;0.30;;;;;;;;;;1732246;28;20611;-60
2023/03/27 04:38:39;;;;;;;0.10;0.10;;;;;;;;;;1729699;28;20246;-60
2023/03/27 04:39:35;;;;;;;0.10;0.10;;;;;;;;;;1733679;28;20316;-60
2023/03/27 04:40:28;;;;;;;0.22;0.22;;;;;;;;;;1730064;28;20196;-60
2023/03/27 04:41:20;;;;;;;0.17;0.17;;;;;;;;;;1731515;28;20296;-60
2023/03/27 04:42:12;;;;;;;0.10;0.10;;;;;;;;;;1732740;28;20589;-59
2023/03/27 04:43:03;;;;;;;0.20;0.20;;;;;;;;;;1730600;28;20208;-59
2023/03/27 04:43:55;;;;;;;0.25;0.25;;;;;;;;;;1731465;28;20204;-59
2023/03/27 04:44:46;;;;;;;0.20;0.20;;;;;;;;;;1731061;28;20285;-60
2023/03/27 04:45:40;;;;;;;0.10;0.10;;;;;;;;;;1729743;28;20228;-60
2023/03/27 04:46:31;;;;;;;0.10;0.10;;;;;;;;;;1730513;28;20668;-59
2023/03/27 04:47:23;;;;;;;0.10;0.10;;;;;;;;;;1731928;28;20203;-59
2023/03/27 04:48:14;;;;;;;0.20;0.20;;;;;;;;;;1730716;28;20342;-60
2023/03/27 04:49:06;;;;;;;0.20;0.20;;;;;;;;;;1731924;28;20262;-59
2023/03/27 04:49:58;;;;;;;0.20;0.20;;;;;;;;;;1730226;28;20605;-59
2023/03/27 04:50:50;;;;;;;0.20;0.20;;;;;;;;;;1733280;28;20223;-60
2023/03/27 04:51:41;;;;;;;0.10;0.10;;;;;;;;;;1733243;28;20212;-60
2023/03/27 04:52:33;;;;;;;0.22;0.22;;;;;;;;;;1731969;28;20222;-60
2023/03/27 04:53:28;;;;;;;0.17;0.17;;;;;;;;;;1731307;28;20295;-59
2023/03/27 04:54:21;;;;;;;0.17;0.17;;;;;;;;;;1731377;28;20551;-60
2023/03/27 04:55:13;;;;;;;0.00;0.00;;;;;;;;;;1731774;28;20232;-60
2023/03/27 04:56:06;;;;;;;0.03;0.03;;;;;;;;;;1731862;28;20262;-60
2023/03/27 04:56:57;;;;;;;0.10;0.10;;;;;;;;;;1731469;28;20342;-60
2023/03/27 04:57:49;;;;;;;0.00;0.00;;;;;;;;;;1732149;28;20295;-59
2023/03/27 04:58:44;;;;;;;0.00;0.00;;;;;;;;;;1731431;28;20346;-59
2023/03/27 04:59:37;;;;;;;0.10;0.10;;;;;;;;;;1730920;28;20207;-59
2023/03/27 05:00:28;;;;;;;0.20;0.20;;;;;;;;;;1728046;28;20590;-59
2023/03/27 05:01:21;;;;;;;0.00;0.00;;;;;;;;;;1732735;28;20196;-58
2023/03/27 05:02:12;;;;;;;0.10;0.10;;;;;;;;;;1732372;28;20677;-59
2023/03/27 05:03:04;;;;;;;0.10;0.10;;;;;;;;;;1733241;28;20659;-59
2023/03/27 05:03:55;;;;;;;0.28;0.28;;;;;;;;;;1731753;28;20211;-59
2023/03/27 05:04:47;;;;;;;0.20;0.20;;;;;;;;;;1730310;28;20216;-59
2023/03/27 05:05:39;;;;;;;0.32;0.32;;;;;;;;;;1730007;28;20704;-59
2023/03/27 05:06:31;;;;;;;0.57;0.57;;;;;;;;;;1728199;28;20779;-60
2023/03/27 05:07:23;;;;;;;0.10;0.10;;;;;;;;;;1731687;28;20274;-58
2023/03/27 05:08:15;;;;;;;0.30;0.30;;;;;;;;;;1731594;28;20585;-59
2023/03/27 05:09:06;;;;;;;0.20;0.20;;;;;;;;;;1733531;28;20278;-59
2023/03/27 05:09:58;;;;;;;0.10;0.10;;;;;;;;;;1730205;28;20588;-59
2023/03/27 05:10:49;;;;;;;0.20;0.20;;;;;;;;;;1734244;28;20236;-60
2023/03/27 05:11:41;;;;;;;0.22;0.22;;;;;;;;;;1732818;28;20204;-59
2023/03/27 05:12:32;;;;;;;0.15;0.15;;;;;;;;;;1728275;28;20270;-59
2023/03/27 05:13:24;;;;;;;0.00;0.00;;;;;;;;;;1731243;28;20269;-60
2023/03/27 05:14:15;;;;;;;0.20;0.20;;;;;;;;;;1731967;28;20265;-60
2023/03/27 05:15:08;;;;;;;0.10;0.10;;;;;;;;;;1730619;28;21023;-59
2023/03/27 05:16:00;;;;;;;0.20;0.20;;;;;;;;;;1730173;28;20220;-60
2023/03/27 05:16:56;;;;;;;0.30;0.30;;;;;;;;;;1731748;28;20679;-59
2023/03/27 05:17:53;;;;;;;0.20;0.20;;;;;;;;;;1732808;28;20257;-61
2023/03/27 05:18:45;;;;;;;0.13;0.13;;;;;;;;;;1731868;28;20596;-60
2023/03/27 05:19:36;;;;;;;0.43;0.43;;;;;;;;;;1731072;28;20287;-60
2023/03/27 05:20:28;;;;;;;0.10;0.10;;;;;;;;;;1728717;28;20577;-60
2023/03/27 05:21:19;;;;;;;0.20;0.20;;;;;;;;;;1731119;28;20238;-59